Weather at San Tomé Airport

Public forecast

Using degrees Celsius for public forecast. Weather courtesy of forecast.io.

Current aviation weather report (METAR) for San Tomé Airport

Report is more than 6 hours old.

Retrieved 2015/09/29 20:00 UTC (7 years ago):

SVST 292000Z 00000KT 9999 SCT060 ///// Q1011

Closest aviation forecast (TAF) to San Tomé Airport

Forecast is more than 12 hours old.

Closest forecast is General José Antonio Anzoategui International Airport, 77.0 nm (142.6 km) NNW. Retrieved 2022/09/17 12:00 UTC (20 days ago):

TAF SVBC 171000Z 1712/1812 00000KT 9999 FEW010 TX33/1718Z TN22/1807Z BECMG 1715/1720 07008KT 9999 SCT010 SCT060